createdAt,value
2022-09-17T00:00:42.285Z,99162.95
2022-09-17T00:01:44.460Z,99161.45
2022-09-17T00:02:48.500Z,99166.83
2022-09-17T00:03:51.219Z,99163.76
2022-09-17T00:04:53.038Z,99165.26
2022-09-17T00:05:58.772Z,99176.03
2022-09-17T00:07:00.771Z,99174.53
2022-09-17T00:08:03.605Z,99181.62
2022-09-17T00:09:06.513Z,99181.52
2022-09-17T00:10:09.112Z,99180.48
2022-09-17T00:11:12.836Z,99180.48
2022-09-17T00:12:14.734Z,99173.39
2022-09-17T00:13:16.537Z,99181.12
2022-09-17T00:14:18.386Z,99178.17
2022-09-17T00:15:20.346Z,99172.78
2022-09-17T00:16:27.013Z,99160.30
2022-09-17T00:17:29.047Z,99161.45
2022-09-17T00:18:30.914Z,99153.41
2022-09-17T00:19:32.904Z,99133.02
2022-09-17T00:20:38.951Z,99151.76
2022-09-17T00:21:40.926Z,99152.91
2022-09-17T00:22:42.735Z,99154.70
2022-09-17T00:23:44.721Z,99157.45
2022-09-17T00:24:46.710Z,99147.92
2022-09-17T00:25:48.527Z,99153.00
2022-09-17T00:26:50.454Z,99149.52
2022-09-17T00:27:52.491Z,99138.32
2022-09-17T00:28:55.497Z,99150.05
2022-09-17T00:29:57.750Z,99140.76
2022-09-17T00:31:00.000Z,99146.67
2022-09-17T00:32:02.221Z,99143.62
2022-09-17T00:33:04.088Z,99144.56
2022-09-17T00:34:06.374Z,99151.76
2022-09-17T00:35:08.467Z,99144.77
2022-09-17T00:36:11.057Z,99146.37
2022-09-17T00:37:12.954Z,99154.41
2022-09-17T00:38:14.912Z,99153.22
2022-09-17T00:39:16.914Z,99146.58
2022-09-17T00:40:20.104Z,99150.05
2022-09-17T00:41:22.715Z,99153.64
2022-09-17T00:42:24.888Z,99150.26
2022-09-17T00:43:31.760Z,99151.53
2022-09-17T00:44:44.636Z,99137.57
2022-09-17T00:45:46.456Z,99135.48
2022-09-17T00:46:49.041Z,99139.48
2022-09-17T00:47:58.802Z,99143.28
2022-09-17T00:49:02.824Z,99142.86
2022-09-17T00:50:09.485Z,99143.50
2022-09-17T00:51:13.319Z,99153.41
2022-09-17T00:52:17.142Z,99156.36
2022-09-17T00:53:20.952Z,99156.36
2022-09-17T00:54:23.571Z,99156.16
2022-09-17T00:55:33.359Z,99156.82
2022-09-17T00:56:37.717Z,99158.29
2022-09-17T00:57:40.750Z,99162.44
2022-09-17T00:58:43.003Z,99159.27
2022-09-17T00:59:45.055Z,99171.48
2022-09-17T01:00:47.271Z,99168.41
2022-09-17T01:01:49.560Z,99167.67
2022-09-17T01:02:52.725Z,99174.42
2022-09-17T01:03:54.558Z,99167.38
2022-09-17T01:04:56.323Z,99173.19
2022-09-17T01:06:02.932Z,99167.13
2022-09-17T01:07:23.402Z,99161.11
2022-09-17T01:08:27.250Z,99155.73
2022-09-17T01:09:33.862Z,99158.06
2022-09-17T01:10:37.781Z,99151.08
2022-09-17T01:11:58.002Z,99155.42
2022-09-17T01:13:07.797Z,99160.81
2022-09-17T01:14:28.228Z,99161.65
2022-09-17T01:15:48.551Z,99165.26
2022-09-17T01:16:52.386Z,99167.13
2022-09-17T01:17:59.262Z,99168.41
2022-09-17T01:19:05.957Z,99177.44
2022-09-17T01:20:15.768Z,99177.67
2022-09-17T01:21:19.476Z,99182.45
2022-09-17T01:22:23.559Z,99178.37
2022-09-17T01:23:39.799Z,99170.41
2022-09-17T01:24:46.385Z,99176.00
2022-09-17T01:26:06.813Z,99166.70
2022-09-17T01:27:19.949Z,99170.08
2022-09-17T01:28:23.778Z,99165.13
2022-09-17T01:29:27.612Z,99170.75
2022-09-17T01:30:31.285Z,99173.39
2022-09-17T01:31:38.141Z,99172.66
2022-09-17T01:32:50.920Z,99180.69
2022-09-17T01:33:54.667Z,99180.84
2022-09-17T01:35:10.606Z,99178.27
2022-09-17T01:36:14.546Z,99179.34
2022-09-17T01:37:18.270Z,99185.73
2022-09-17T01:38:25.237Z,99188.24
2022-09-17T01:39:29.219Z,99189.45
2022-09-17T01:40:45.292Z,99191.61
2022-09-17T01:41:56.047Z,99195.95
2022-09-17T01:44:29.050Z,99184.95
2022-09-17T01:45:38.687Z,99193.16
2022-09-17T01:46:45.481Z,99185.13
2022-09-17T01:47:49.127Z,99184.83
2022-09-17T01:48:52.902Z,99186.63
2022-09-17T01:49:57.038Z,99188.97
2022-09-17T01:51:00.715Z,99194.36
2022-09-17T01:52:03.621Z,99192.55
2022-09-17T01:53:07.241Z,99195.83
2022-09-17T01:54:16.731Z,99192.98
2022-09-17T01:55:20.458Z,99195.83
2022-09-17T01:56:24.360Z,99199.54
2022-09-17T01:57:28.173Z,99196.13
2022-09-17T01:58:32.003Z,99202.72
2022-09-17T01:59:35.835Z,99202.08
2022-09-17T02:00:39.598Z,99197.84
2022-09-17T02:01:43.109Z,99201.02
2022-09-17T02:02:49.791Z,99192.98
2022-09-17T02:03:56.445Z,99198.27
2022-09-17T02:05:00.255Z,99198.27
2022-09-17T02:06:04.061Z,99202.08
2022-09-17T02:07:07.945Z,99202.08
2022-09-17T02:08:20.719Z,99201.58
2022-09-17T02:09:24.600Z,99197.66
2022-09-17T02:10:31.406Z,99195.11
2022-09-17T02:11:37.927Z,99194.48
2022-09-17T02:12:41.743Z,99190.23
2022-09-17T02:13:45.478Z,99188.36
2022-09-17T02:14:51.938Z,99191.00
2022-09-17T02:15:55.871Z,99179.45
2022-09-17T02:17:02.471Z,99181.16
2022-09-17T02:18:12.309Z,99184.53
2022-09-17T02:19:18.970Z,99181.58
2022-09-17T02:20:23.079Z,99183.92
2022-09-17T02:21:29.765Z,99179.26
2022-09-17T02:22:33.561Z,99175.56
2022-09-17T02:23:37.425Z,99175.67
2022-09-17T02:24:47.061Z,99174.18
2022-09-17T02:26:09.411Z,99172.82
2022-09-17T02:27:25.610Z,99180.86
2022-09-17T02:28:32.114Z,99188.48
2022-09-17T02:29:41.654Z,99184.62
2022-09-17T02:30:43.694Z,99190.21
2022-09-17T02:31:45.591Z,99198.77
2022-09-17T02:32:47.696Z,99191.73
2022-09-17T02:33:51.722Z,99192.58
2022-09-17T02:34:53.609Z,99196.31
2022-09-17T02:35:55.431Z,99186.88
2022-09-17T02:36:57.600Z,99193.98
2022-09-17T02:37:59.857Z,99191.55
2022-09-17T02:39:03.055Z,99185.59
2022-09-17T02:40:05.574Z,99197.88
2022-09-17T02:41:09.286Z,99192.59
2022-09-17T02:42:22.425Z,99193.77
2022-09-17T02:43:26.100Z,99190.26
2022-09-17T02:44:32.807Z,99189.42
2022-09-17T02:45:36.534Z,99192.80
2022-09-17T02:46:56.993Z,99196.17
2022-09-17T02:48:03.621Z,99197.25
2022-09-17T02:49:10.588Z,99206.66
2022-09-17T02:50:17.466Z,99203.38
2022-09-17T02:51:21.143Z,99194.09
2022-09-17T02:52:24.809Z,99202.13
2022-09-17T02:53:37.528Z,99194.92
2022-09-17T02:54:58.211Z,99185.84
2022-09-17T02:56:20.398Z,99182.53
2022-09-17T02:57:24.076Z,99182.31
2022-09-17T02:58:33.807Z,99179.67
2022-09-17T02:59:40.620Z,99184.86
2022-09-17T03:00:44.168Z,99175.88
2022-09-17T03:01:48.158Z,99171.41
2022-09-17T03:02:51.827Z,99166.96
2022-09-17T03:03:54.295Z,99168.05
2022-09-17T03:04:56.383Z,99166.23
2022-09-17T03:05:59.232Z,99158.19
2022-09-17T03:07:02.907Z,99159.67
2022-09-17T03:08:06.587Z,99167.63
2022-09-17T03:09:08.429Z,99158.30
2022-09-17T03:10:10.543Z,99159.69
2022-09-17T03:11:12.872Z,99162.03
2022-09-17T03:12:15.125Z,99166.34
2022-09-17T03:13:17.003Z,99161.68
2022-09-17T03:14:18.981Z,99157.56
2022-09-17T03:15:20.808Z,99163.37
2022-09-17T03:16:23.785Z,99161.45
2022-09-17T03:17:26.049Z,99166.53
2022-09-17T03:18:27.895Z,99168.23
2022-09-17T03:19:30.006Z,99176.39
2022-09-17T03:20:32.401Z,99171.09
2022-09-17T03:21:34.466Z,99175.66
2022-09-17T03:22:36.935Z,99175.66
2022-09-17T03:23:38.815Z,99173.23
2022-09-17T03:24:40.715Z,99176.60
2022-09-17T03:25:42.535Z,99177.33
2022-09-17T03:26:44.487Z,99174.47
2022-09-17T03:27:46.365Z,99175.45
2022-09-17T03:28:48.127Z,99179.88
2022-09-17T03:29:50.165Z,99185.61
2022-09-17T03:30:52.258Z,99179.34
2022-09-17T03:31:54.288Z,99179.55
2022-09-17T03:32:56.363Z,99182.52
2022-09-17T03:33:58.464Z,99179.55
2022-09-17T03:35:00.329Z,99184.84
2022-09-17T03:36:02.209Z,99178.82
2022-09-17T03:37:04.344Z,99186.44
2022-09-17T03:38:07.199Z,99175.75
2022-09-17T03:39:09.071Z,99171.19
2022-09-17T03:40:11.229Z,99173.83
2022-09-17T03:41:13.361Z,99169.27
2022-09-17T03:42:15.167Z,99166.62
2022-09-17T03:43:17.153Z,99177.20
2022-09-17T03:44:19.331Z,99180.72
2022-09-17T03:45:21.578Z,99178.80
2022-09-17T03:46:23.782Z,99170.13
2022-09-17T03:47:25.740Z,99173.40
2022-09-17T03:48:27.700Z,99171.38
2022-09-17T03:49:29.596Z,99182.28
2022-09-17T03:50:31.600Z,99182.95
2022-09-17T03:51:33.620Z,99185.61
2022-09-17T03:52:35.554Z,99183.47
2022-09-17T03:53:37.470Z,99183.39
2022-09-17T03:54:39.498Z,99190.14
2022-09-17T03:55:41.463Z,99185.61
2022-09-17T03:56:43.511Z,99180.53
2022-09-17T03:57:45.539Z,99191.22
2022-09-17T03:58:47.472Z,99182.52
2022-09-17T03:59:50.275Z,99191.95
2022-09-17T04:00:52.202Z,99194.06
2022-09-17T04:01:54.424Z,99194.58
2022-09-17T04:02:56.721Z,99193.28
2022-09-17T04:03:58.619Z,99191.91
2022-09-17T04:05:00.537Z,99199.73
2022-09-17T04:06:02.415Z,99193.36
2022-09-17T04:07:04.395Z,99173.91
2022-09-17T04:08:06.380Z,99184.58
2022-09-17T04:09:08.254Z,99181.53
2022-09-17T04:10:10.237Z,99174.09
2022-09-17T04:11:12.440Z,99173.66
2022-09-17T04:12:14.196Z,99168.14
2022-09-17T04:13:16.074Z,99181.27
2022-09-17T04:14:17.903Z,99187.63
2022-09-17T04:15:19.738Z,99183.30
2022-09-17T04:16:22.183Z,99188.06
2022-09-17T04:17:24.149Z,99184.47
2022-09-17T04:18:26.051Z,99193.50
2022-09-17T04:19:27.910Z,99208.19
2022-09-17T04:20:30.397Z,99210.33
2022-09-17T04:21:32.630Z,99207.36
2022-09-17T04:22:34.839Z,99214.55
2022-09-17T04:23:36.923Z,99209.90
2022-09-17T04:24:38.731Z,99208.52
2022-09-17T04:25:40.662Z,99205.22
2022-09-17T04:26:42.727Z,99206.20
2022-09-17T04:27:45.643Z,99203.52
2022-09-17T04:28:47.789Z,99209.10
2022-09-17T04:29:49.715Z,99199.27
2022-09-17T04:30:52.152Z,99208.77
2022-09-17T04:31:54.134Z,99214.94
2022-09-17T04:32:55.970Z,99214.72
2022-09-17T04:33:58.021Z,99215.55
2022-09-17T04:35:00.163Z,99216.17
2022-09-17T04:36:02.514Z,99219.10
2022-09-17T04:37:04.476Z,99217.44
2022-09-17T04:38:06.551Z,99219.33
2022-09-17T04:39:08.791Z,99221.53
2022-09-17T04:40:11.310Z,99217.21
2022-09-17T04:41:13.632Z,99216.13
2022-09-17T04:42:15.536Z,99222.25
2022-09-17T04:43:17.535Z,99224.41
2022-09-17T04:44:19.702Z,99231.52
2022-09-17T04:45:22.609Z,99227.55
2022-09-17T04:46:24.693Z,99228.48
2022-09-17T04:47:26.615Z,99228.81
2022-09-17T04:48:28.569Z,99226.16
2022-09-17T04:49:30.628Z,99225.94
2022-09-17T04:50:32.608Z,99227.00
2022-09-17T04:51:34.482Z,99223.52
2022-09-17T04:52:36.481Z,99219.16
2022-09-17T04:53:38.756Z,99221.59
2022-09-17T04:54:40.694Z,99217.77
2022-09-17T04:55:42.603Z,99213.69
2022-09-17T04:56:44.439Z,99210.20
2022-09-17T04:57:50.277Z,99208.39
2022-09-17T04:58:52.240Z,99213.69
2022-09-17T04:59:54.347Z,99204.06
2022-09-17T05:00:56.245Z,99209.03
2022-09-17T05:01:58.569Z,99202.75
2022-09-17T05:03:00.590Z,99198.28
2022-09-17T05:04:02.567Z,99202.41
2022-09-17T05:05:04.649Z,99198.05
2022-09-17T05:06:06.735Z,99202.67
2022-09-17T05:07:13.196Z,99192.79
2022-09-17T05:08:12.647Z,99192.56
2022-09-17T05:09:14.651Z,99194.38
2022-09-17T05:10:17.898Z,99199.34
2022-09-17T05:11:19.826Z,99198.84
2022-09-17T05:12:21.768Z,99206.25
2022-09-17T05:13:23.640Z,99206.67
2022-09-17T05:14:25.677Z,99208.95
2022-09-17T05:15:27.543Z,99220.02
2022-09-17T05:16:29.488Z,99223.83
2022-09-17T05:17:31.347Z,99223.00
2022-09-17T05:18:33.385Z,99222.66
2022-09-17T05:19:35.156Z,99216.13
2022-09-17T05:20:37.343Z,99221.64
2022-09-17T05:21:39.411Z,99221.59
2022-09-17T05:22:43.154Z,99219.44
2022-09-17T05:23:44.993Z,99218.77
2022-09-17T05:24:47.114Z,99219.27
2022-09-17T05:25:49.099Z,99218.31
2022-09-17T05:26:50.921Z,99218.47
2022-09-17T05:27:53.412Z,99222.72
2022-09-17T05:28:55.552Z,99220.55
2022-09-17T05:29:57.579Z,99226.23
2022-09-17T05:30:59.912Z,99224.19
2022-09-17T05:32:03.025Z,99228.09
2022-09-17T05:33:06.047Z,99225.92
2022-09-17T05:34:08.085Z,99235.36
2022-09-17T05:35:11.335Z,99222.81
2022-09-17T05:36:13.468Z,99225.12
2022-09-17T05:37:15.379Z,99219.46
2022-09-17T05:38:17.329Z,99221.77
2022-09-17T05:39:19.359Z,99222.13
2022-09-17T05:40:21.624Z,99216.23
2022-09-17T05:41:23.627Z,99218.74
2022-09-17T05:42:25.813Z,99220.72
2022-09-17T05:43:27.897Z,99219.17
2022-09-17T05:44:29.775Z,99229.67
2022-09-17T05:45:34.997Z,99233.48
2022-09-17T05:46:37.068Z,99226.27
2022-09-17T05:47:39.194Z,99228.45
2022-09-17T05:48:41.170Z,99217.12
2022-09-17T05:49:43.045Z,99222.91
2022-09-17T05:50:44.878Z,99219.06
2022-09-17T05:51:46.720Z,99217.12
2022-09-17T05:52:48.775Z,99219.53
2022-09-17T05:53:50.776Z,99211.33
2022-09-17T05:54:52.885Z,99215.41
2022-09-17T05:55:58.582Z,99218.94
2022-09-17T05:57:00.631Z,99212.51
2022-09-17T05:58:09.546Z,99222.42
2022-09-17T05:59:11.783Z,99212.98
2022-09-17T06:00:14.842Z,99210.09
2022-09-17T06:01:16.823Z,99220.12
2022-09-17T06:02:18.722Z,99226.27
2022-09-17T06:03:21.134Z,99228.31
2022-09-17T06:04:23.025Z,99232.92
2022-09-17T06:05:25.161Z,99230.85
2022-09-17T06:06:27.675Z,99232.33
2022-09-17T06:07:29.838Z,99236.65
2022-09-17T06:08:33.443Z,99227.72
2022-09-17T06:09:35.916Z,99234.86
2022-09-17T06:10:38.535Z,99246.20
2022-09-17T06:11:41.407Z,99240.05
2022-09-17T06:12:43.177Z,99239.08
2022-09-17T06:13:45.089Z,99230.52
2022-09-17T06:14:47.021Z,99234.23
2022-09-17T06:15:49.798Z,99231.09
2022-09-17T06:16:51.722Z,99229.19
2022-09-17T06:17:54.021Z,99231.96
2022-09-17T06:18:55.810Z,99234.38
2022-09-17T06:19:57.677Z,99237.87
2022-09-17T06:21:00.588Z,99238.58
2022-09-17T06:22:02.800Z,99238.09
2022-09-17T06:23:04.668Z,99241.34
2022-09-17T06:24:06.712Z,99237.48
2022-09-17T06:25:08.708Z,99233.72
2022-09-17T06:26:11.255Z,99230.81
2022-09-17T06:27:13.254Z,99231.83
2022-09-17T06:28:15.184Z,99227.00
2022-09-17T06:29:17.004Z,99235.91
2022-09-17T06:30:18.994Z,99227.22
2022-09-17T06:31:20.969Z,99232.41
2022-09-17T06:32:23.929Z,99226.27
2022-09-17T06:33:26.691Z,99228.40
2022-09-17T06:34:28.519Z,99217.30
2022-09-17T06:35:30.444Z,99219.22
2022-09-17T06:36:32.382Z,99210.51
2022-09-17T06:37:34.612Z,99217.00
2022-09-17T06:38:36.806Z,99214.22
2022-09-17T06:39:38.824Z,99227.72
2022-09-17T06:40:41.124Z,99223.14
2022-09-17T06:41:43.247Z,99224.23
2022-09-17T06:42:45.109Z,99234.80
2022-09-17T06:43:47.059Z,99231.78
2022-09-17T06:44:48.985Z,99239.63
2022-09-17T06:45:54.328Z,99238.02
2022-09-17T06:46:56.527Z,99239.47
2022-09-17T06:48:00.479Z,99238.97
2022-09-17T06:49:02.991Z,99238.57
2022-09-17T06:50:05.368Z,99239.06
2022-09-17T06:51:09.103Z,99238.69
2022-09-17T06:52:11.073Z,99234.78
2022-09-17T06:53:12.949Z,99226.80
2022-09-17T06:54:15.005Z,99225.10
2022-09-17T06:55:17.238Z,99227.26
2022-09-17T06:56:19.419Z,99231.36
2022-09-17T06:57:21.203Z,99233.06
2022-09-17T06:58:23.367Z,99233.90
2022-09-17T06:59:25.225Z,99229.28
2022-09-17T07:00:27.437Z,99233.55
2022-09-17T07:01:29.730Z,99232.69
2022-09-17T07:02:31.815Z,99232.30
2022-09-17T07:03:34.089Z,99238.48
2022-09-17T07:04:35.862Z,99186.70
2022-09-17T07:05:37.947Z,99244.39
2022-09-17T07:06:39.875Z,99239.91
2022-09-17T07:07:42.951Z,99245.09
2022-09-17T07:08:45.835Z,99241.73
2022-09-17T07:09:48.567Z,99238.81
2022-09-17T07:10:50.575Z,99221.20
2022-09-17T07:11:52.453Z,99239.65
2022-09-17T07:12:54.402Z,99238.81
2022-09-17T07:13:56.668Z,99233.36
2022-09-17T07:14:58.701Z,99238.56
2022-09-17T07:16:01.598Z,99237.56
2022-09-17T07:17:03.900Z,99241.34
2022-09-17T07:18:08.958Z,99241.09
2022-09-17T07:19:11.233Z,99238.30
2022-09-17T07:20:13.954Z,99239.14
2022-09-17T07:21:15.826Z,99244.20
2022-09-17T07:22:17.590Z,99241.41
2022-09-17T07:23:19.532Z,99240.55
2022-09-17T07:24:21.559Z,99238.75
2022-09-17T07:25:24.115Z,99241.16
2022-09-17T07:26:26.137Z,99243.83
2022-09-17T07:27:28.887Z,99241.41
2022-09-17T07:28:31.026Z,99244.08
2022-09-17T07:29:33.003Z,99247.31
2022-09-17T07:30:34.866Z,99244.53
2022-09-17T07:31:36.738Z,99243.70
2022-09-17T07:32:38.738Z,99236.67
2022-09-17T07:33:41.085Z,99235.70
2022-09-17T07:34:43.007Z,99236.41
2022-09-17T07:36:04.780Z,99233.36
2022-09-17T07:37:06.650Z,99230.83
2022-09-17T07:38:08.580Z,99231.53
2022-09-17T07:39:10.531Z,99238.69
2022-09-17T07:40:12.798Z,99240.36
2022-09-17T07:41:16.478Z,99244.02
2022-09-17T07:42:18.458Z,99245.97
2022-09-17T07:43:20.849Z,99237.70
2022-09-17T07:44:22.633Z,99244.72
2022-09-17T07:45:24.598Z,99239.13
2022-09-17T07:46:26.557Z,99239.84
2022-09-17T07:47:28.580Z,99249.40
2022-09-17T07:48:30.851Z,99249.14
2022-09-17T07:49:32.776Z,99249.71
2022-09-17T07:50:36.660Z,99248.75
2022-09-17T07:51:40.421Z,99250.67
2022-09-17T07:52:44.116Z,99246.34
2022-09-17T07:53:46.115Z,99238.48
2022-09-17T07:54:48.255Z,99243.30
2022-09-17T07:55:54.887Z,99236.84
2022-09-17T07:56:57.073Z,99234.91
2022-09-17T07:57:59.011Z,99231.26
2022-09-17T07:59:02.165Z,99230.86
2022-09-17T08:00:04.863Z,99229.03
2022-09-17T08:01:07.940Z,99226.50
2022-09-17T08:02:12.921Z,99231.44
2022-09-17T08:03:15.253Z,99222.61
2022-09-17T08:04:17.174Z,99229.64
2022-09-17T08:05:19.051Z,99228.51
2022-09-17T08:06:22.659Z,99226.84
2022-09-17T08:07:26.589Z,99228.95
2022-09-17T08:08:29.156Z,99235.27
2022-09-17T08:09:31.012Z,99223.36
2022-09-17T08:10:33.203Z,99217.77
2022-09-17T08:11:54.966Z,99218.50
2022-09-17T08:12:39.527Z,99217.63
2022-09-17T08:13:41.454Z,99218.23
2022-09-17T08:14:43.927Z,99213.60
2022-09-17T08:15:46.224Z,99222.03
2022-09-17T08:16:48.266Z,99220.20
2022-09-17T08:17:50.567Z,99218.27
2022-09-17T08:18:56.377Z,99217.53
2022-09-17T08:19:58.327Z,99224.30
2022-09-17T08:21:02.043Z,99225.56
2022-09-17T08:22:04.081Z,99229.79
2022-09-17T08:23:06.097Z,99232.69
2022-09-17T08:24:08.077Z,99243.61
2022-09-17T08:25:10.342Z,99235.88
2022-09-17T08:26:14.655Z,99238.15
2022-09-17T08:27:16.551Z,99235.31
2022-09-17T08:28:18.648Z,99228.59
2022-09-17T08:29:20.680Z,99233.13
2022-09-17T08:30:22.759Z,99241.55
2022-09-17T08:31:26.003Z,99233.98
2022-09-17T08:32:29.104Z,99235.66
2022-09-17T08:33:32.943Z,99243.25
2022-09-17T08:34:34.897Z,99235.25
2022-09-17T08:35:36.765Z,99236.22
2022-09-17T08:36:38.565Z,99237.48
2022-09-17T08:37:40.673Z,99233.09
2022-09-17T08:38:42.502Z,99233.92
2022-09-17T08:39:44.530Z,99236.88
2022-09-17T08:40:51.136Z,99240.81
2022-09-17T08:42:07.060Z,99246.98
2022-09-17T08:43:10.830Z,99240.55
2022-09-17T08:44:26.724Z,99238.88
2022-09-17T08:45:29.219Z,99242.84
2022-09-17T08:46:42.588Z,99234.29
2022-09-17T08:47:45.823Z,99238.19
2022-09-17T08:48:52.892Z,99242.28
2022-09-17T08:49:58.932Z,99241.02
2022-09-17T08:51:07.956Z,99245.11
2022-09-17T08:52:17.544Z,99234.31
2022-09-17T08:54:41.184Z,99229.90
2022-09-17T08:55:45.128Z,99233.10
2022-09-17T08:56:48.791Z,99237.47
2022-09-17T08:58:01.742Z,99227.64
2022-09-17T08:59:05.393Z,99228.50
2022-09-17T09:00:15.294Z,99227.09
2022-09-17T09:01:22.139Z,99222.63
2022-09-17T09:02:42.760Z,99224.58
2022-09-17T09:03:49.449Z,99224.73
2022-09-17T09:04:53.132Z,99217.32
2022-09-17T09:05:55.589Z,99216.59
2022-09-17T09:07:08.551Z,99209.05
2022-09-17T09:08:12.378Z,99221.38
2022-09-17T09:09:15.386Z,99211.70
2022-09-17T09:10:22.198Z,99216.91
2022-09-17T09:11:25.875Z,99218.71
2022-09-17T09:12:29.734Z,99222.66
2022-09-17T09:13:36.675Z,99222.06
2022-09-17T09:14:49.715Z,99216.17
2022-09-17T09:15:53.601Z,99222.32
2022-09-17T09:16:56.588Z,99217.56
2022-09-17T09:18:00.332Z,99216.56
2022-09-17T09:19:10.262Z,99219.08
2022-09-17T09:20:12.686Z,99225.11
2022-09-17T09:21:19.571Z,99216.84
2022-09-17T09:22:26.124Z,99224.83
2022-09-17T09:23:42.183Z,99216.00
2022-09-17T09:24:52.031Z,99212.37
2022-09-17T09:25:55.909Z,99215.87
2022-09-17T09:26:59.585Z,99218.27
2022-09-17T09:28:03.315Z,99218.67
2022-09-17T09:29:22.443Z,99217.24
2022-09-17T09:30:27.002Z,99220.37
2022-09-17T09:31:39.905Z,99210.67
2022-09-17T09:32:49.553Z,99212.08
2022-09-17T09:33:51.916Z,99218.81
2022-09-17T09:34:54.661Z,99220.80
2022-09-17T09:35:56.648Z,99213.06
2022-09-17T09:37:00.427Z,99222.30
2022-09-17T09:38:04.282Z,99220.23
2022-09-17T09:39:08.187Z,99211.64
2022-09-17T09:41:26.050Z,99210.84
2022-09-17T09:42:35.353Z,99215.05
2022-09-17T09:44:02.631Z,99224.86
2022-09-17T09:44:46.354Z,99227.11
2022-09-17T09:45:55.941Z,99222.05
2022-09-17T09:46:59.949Z,99224.72
2022-09-17T09:48:06.995Z,99227.09
2022-09-17T09:49:27.368Z,99224.42
2022-09-17T09:51:04.741Z,99226.82
2022-09-17T09:51:57.545Z,99225.99
2022-09-17T09:53:01.217Z,99225.30
2022-09-17T09:54:04.895Z,99226.82
2022-09-17T09:55:08.579Z,99225.45
2022-09-17T09:56:29.259Z,99225.72
2022-09-17T09:57:36.138Z,99227.97
2022-09-17T09:58:39.368Z,99226.00
2022-09-17T09:59:41.319Z,99226.98
2022-09-17T10:00:43.448Z,99230.51
2022-09-17T10:01:45.560Z,99222.49
2022-09-17T10:02:48.756Z,99233.17
2022-09-17T10:03:52.113Z,99238.66
2022-09-17T10:04:54.006Z,99236.00
2022-09-17T10:05:57.162Z,99237.80
2022-09-17T10:07:06.634Z,99243.73
2022-09-17T10:08:12.469Z,99252.14
2022-09-17T10:09:15.225Z,99249.89
2022-09-17T10:10:18.030Z,99237.52
2022-09-17T10:11:21.655Z,99243.00
2022-09-17T10:12:23.576Z,99250.72
2022-09-17T10:13:27.491Z,99244.67
2022-09-17T10:14:30.776Z,99247.05
2022-09-17T10:15:32.909Z,99243.40
2022-09-17T10:16:34.865Z,99225.72
2022-09-17T10:17:36.700Z,99236.11
2022-09-17T10:18:38.487Z,99244.50
2022-09-17T10:19:41.190Z,99235.95
2022-09-17T10:20:50.941Z,99226.98
2022-09-17T10:21:53.381Z,99221.92
2022-09-17T10:22:55.355Z,99227.71
2022-09-17T10:23:57.980Z,99224.47
2022-09-17T10:25:01.114Z,99234.16
2022-09-17T10:26:03.196Z,99233.05
2022-09-17T10:27:06.615Z,99234.16
2022-09-17T10:28:10.293Z,99233.89
2022-09-17T10:29:14.019Z,99234.71
2022-09-17T10:30:17.524Z,99234.58
2022-09-17T10:31:19.836Z,99231.49
2022-09-17T10:32:22.516Z,99229.66
2022-09-17T10:33:32.050Z,99234.14
2022-09-17T10:34:34.204Z,99228.12
2022-09-17T10:35:36.198Z,99225.73
2022-09-17T10:36:42.668Z,99220.83
2022-09-17T10:37:46.364Z,99224.91
2022-09-17T10:38:48.809Z,99222.66
2022-09-17T10:39:51.619Z,99221.52
2022-09-17T10:40:55.611Z,99235.31
2022-09-17T10:41:58.986Z,99235.45
2022-09-17T10:43:02.868Z,99222.25
2022-09-17T10:44:06.663Z,99230.67
2022-09-17T10:45:10.566Z,99228.28
2022-09-17T10:46:17.451Z,99218.73
2022-09-17T10:47:33.278Z,99226.88
2022-09-17T10:48:37.153Z,99217.03
2022-09-17T10:49:44.016Z,99217.04
2022-09-17T10:50:50.125Z,99224.64
2022-09-17T10:51:52.304Z,99230.80
2022-09-17T10:52:56.012Z,99228.69
2022-09-17T10:54:02.946Z,99227.99
2022-09-17T10:55:13.157Z,99235.16
2022-09-17T10:56:20.753Z,99233.32
2022-09-17T10:57:41.571Z,99234.33
2022-09-17T10:58:45.290Z,99224.06
2022-09-17T10:59:48.985Z,99229.97
2022-09-17T11:00:52.808Z,99233.34
2022-09-17T11:02:14.094Z,99231.64
2022-09-17T11:03:35.468Z,99230.81
2022-09-17T11:04:39.496Z,99235.73
2022-09-17T11:05:55.379Z,99238.95
2022-09-17T11:07:02.231Z,99233.06
2022-09-17T11:08:12.288Z,99228.55
2022-09-17T11:09:22.308Z,99233.05
2022-09-17T11:10:29.320Z,99238.67
2022-09-17T11:11:45.366Z,99234.72
2022-09-17T11:12:58.293Z,99230.80
2022-09-17T11:14:02.088Z,99233.48
2022-09-17T11:15:08.781Z,99228.28
2022-09-17T11:16:29.175Z,99221.41
2022-09-17T11:17:32.958Z,99222.38
2022-09-17T11:18:49.089Z,99220.69
2022-09-17T11:19:52.751Z,99216.75
2022-09-17T11:20:59.406Z,99216.35
2022-09-17T11:22:03.480Z,99226.30
2022-09-17T11:23:07.397Z,99217.86
2022-09-17T11:24:17.591Z,99218.31
2022-09-17T11:25:27.340Z,99213.53
2022-09-17T11:26:31.119Z,99218.16
2022-09-17T11:27:37.926Z,99211.40
2022-09-17T11:28:47.411Z,99212.53
2022-09-17T11:30:03.633Z,99209.13
2022-09-17T11:31:07.603Z,99210.55
2022-09-17T11:32:12.673Z,99208.28
2022-09-17T11:33:19.343Z,99211.78
2022-09-17T11:34:41.012Z,99211.64
2022-09-17T11:35:50.496Z,99213.62
2022-09-17T11:37:06.938Z,99212.20
2022-09-17T11:38:11.501Z,99207.73
2022-09-17T11:39:18.276Z,99208.28
2022-09-17T11:40:28.039Z,99204.66
2022-09-17T11:41:34.630Z,99194.92
2022-09-17T11:42:38.345Z,99199.86
2022-09-17T11:43:54.047Z,99191.73
2022-09-17T11:45:00.764Z,99190.32
2022-09-17T11:46:22.969Z,99197.77
2022-09-17T11:47:26.814Z,99193.98
2022-09-17T11:48:30.501Z,99194.55
2022-09-17T11:49:40.086Z,99189.47
2022-09-17T11:50:43.937Z,99183.30
2022-09-17T11:51:48.105Z,99181.86
2022-09-17T11:53:00.793Z,99177.49
2022-09-17T11:54:07.676Z,99174.13
2022-09-17T11:55:11.422Z,99170.89
2022-09-17T11:56:16.632Z,99161.91
2022-09-17T11:57:29.620Z,99158.23
2022-09-17T11:58:45.733Z,99157.11
2022-09-17T11:59:52.854Z,99159.92
2022-09-17T12:00:56.531Z,99154.47
2022-09-17T12:02:00.651Z,99159.38
2022-09-17T12:03:04.704Z,99163.02
2022-09-17T12:04:12.511Z,99158.08
2022-09-17T12:05:22.131Z,99164.14
2022-09-17T12:06:42.873Z,99160.50
2022-09-17T12:07:49.185Z,99165.55
2022-09-17T12:08:52.996Z,99168.08
2022-09-17T12:09:56.723Z,99164.72
2022-09-17T12:11:17.512Z,99166.38
2022-09-17T12:12:44.804Z,99169.23
2022-09-17T12:13:36.124Z,99164.43
2022-09-17T12:14:46.071Z,99169.77
2022-09-17T12:15:53.158Z,99159.09
2022-09-17T12:16:55.376Z,99165.27
2022-09-17T12:18:32.873Z,99154.87
2022-09-17T12:19:37.264Z,99150.36
2022-09-17T12:20:41.068Z,99154.47
2022-09-17T12:21:48.007Z,99146.45
2022-09-17T12:22:51.122Z,99144.47
2022-09-17T12:23:54.865Z,99149.13
2022-09-17T12:24:57.239Z,99144.22
2022-09-17T12:26:01.378Z,99142.52
2022-09-17T12:27:11.017Z,99145.77
2022-09-17T12:28:14.802Z,99149.02
2022-09-17T12:29:30.552Z,99155.76
2022-09-17T12:30:34.639Z,99155.76
2022-09-17T12:31:38.778Z,99159.29
2022-09-17T12:32:45.499Z,99155.20
2022-09-17T12:33:49.370Z,99164.63
2022-09-17T12:34:53.099Z,99171.23
2022-09-17T12:36:09.138Z,99171.23
2022-09-17T12:38:48.919Z,99156.45
2022-09-17T12:40:09.929Z,99162.10
2022-09-17T12:41:16.780Z,99156.05
2022-09-17T12:42:20.658Z,99149.88
2022-09-17T12:43:43.038Z,99157.59
2022-09-17T12:44:55.969Z,99148.75